createdAt,value
2023-09-17T00:02:08.282Z,100089.72
2023-09-17T00:04:35.147Z,100087.41
2023-09-17T00:07:01.719Z,100087.38
2023-09-17T00:09:28.227Z,100086.09
2023-09-17T00:11:54.802Z,100082.34
2023-09-17T00:14:21.824Z,100074.59
2023-09-17T00:16:48.672Z,100077.13
2023-09-17T00:19:15.235Z,100073.19
2023-09-17T00:21:41.789Z,100063.75
2023-09-17T00:24:08.560Z,100061.47
2023-09-17T00:26:35.181Z,100062.50
2023-09-17T00:29:02.156Z,100064.56
2023-09-17T00:31:29.155Z,100062.88
2023-09-17T00:33:55.885Z,100069.31
2023-09-17T00:36:23.850Z,100059.94
2023-09-17T00:38:50.444Z,100061.16
2023-09-17T00:41:17.124Z,100056.97
2023-09-17T00:43:43.690Z,100059.88
2023-09-17T00:46:10.716Z,100057.78
2023-09-17T00:48:38.530Z,100055.44
2023-09-17T00:51:05.438Z,100055.22
2023-09-17T00:53:32.240Z,100059.59
2023-09-17T00:56:00.115Z,100054.56
2023-09-17T00:58:29.705Z,100061.00
2023-09-17T01:00:59.338Z,100053.66
2023-09-17T01:03:29.471Z,100057.03
2023-09-17T01:05:57.753Z,100047.41
2023-09-17T01:08:26.297Z,100055.31
2023-09-17T01:10:56.154Z,100057.81
2023-09-17T01:13:25.350Z,100057.81
2023-09-17T01:15:53.133Z,100051.13
2023-09-17T01:18:23.253Z,100053.84
2023-09-17T01:21:01.623Z,100054.69
2023-09-17T01:23:39.718Z,100047.56
2023-09-17T01:26:16.973Z,100055.72
2023-09-17T01:28:43.933Z,100058.19
2023-09-17T01:31:10.818Z,100058.97
2023-09-17T01:33:37.340Z,100054.34
2023-09-17T01:36:20.153Z,100055.00
2023-09-17T01:38:53.707Z,100043.28
2023-09-17T01:41:21.189Z,100050.00
2023-09-17T01:43:48.130Z,100053.91
2023-09-17T01:46:17.729Z,100042.84
2023-09-17T01:48:46.808Z,100046.38
2023-09-17T01:51:14.443Z,100044.06
2023-09-17T01:53:40.913Z,100059.47
2023-09-17T01:56:07.437Z,100054.47
2023-09-17T01:58:35.239Z,100060.25
2023-09-17T02:01:02.138Z,100066.84
2023-09-17T02:03:30.255Z,100061.00
2023-09-17T02:05:57.037Z,100056.41
2023-09-17T02:08:23.700Z,100049.13
2023-09-17T02:10:50.201Z,100047.03
2023-09-17T02:13:16.741Z,100036.56
2023-09-17T02:15:43.458Z,100042.22
2023-09-17T02:18:09.994Z,100043.84
2023-09-17T02:20:40.227Z,100036.38
2023-09-17T02:23:07.812Z,100044.31
2023-09-17T02:25:34.268Z,100038.06
2023-09-17T02:28:00.991Z,100048.22
2023-09-17T02:30:29.546Z,100039.28
2023-09-17T02:32:56.105Z,100043.66
2023-09-17T02:35:22.661Z,100031.09
2023-09-17T02:37:50.427Z,100035.41
2023-09-17T02:40:17.540Z,100030.38
2023-09-17T02:42:45.456Z,100042.50
2023-09-17T02:45:12.803Z,100041.84
2023-09-17T02:47:41.759Z,100043.72
2023-09-17T02:50:10.916Z,100021.31
2023-09-17T02:52:37.862Z,100040.75
2023-09-17T02:55:05.922Z,100036.19
2023-09-17T02:57:32.712Z,100039.06
2023-09-17T02:59:59.249Z,100037.22
2023-09-17T03:02:26.255Z,100032.56
2023-09-17T03:04:54.057Z,100027.53
2023-09-17T03:07:20.720Z,100039.25
2023-09-17T03:09:47.369Z,100034.94
2023-09-17T03:12:13.901Z,100032.69
2023-09-17T03:14:40.581Z,100033.72
2023-09-17T03:17:07.176Z,100030.38
2023-09-17T03:19:33.946Z,100026.38
2023-09-17T03:22:01.778Z,100023.31
2023-09-17T03:24:28.301Z,100024.94
2023-09-17T03:26:54.748Z,100017.41
2023-09-17T03:29:21.332Z,100020.72
2023-09-17T03:31:49.492Z,100023.78
2023-09-17T03:34:16.189Z,100022.97
2023-09-17T03:36:42.679Z,100015.41
2023-09-17T03:39:10.117Z,100031.22
2023-09-17T03:41:41.269Z,100027.88
2023-09-17T03:44:11.142Z,100039.91
2023-09-17T03:46:39.319Z,100029.06
2023-09-17T03:49:07.077Z,100022.25
2023-09-17T03:51:33.935Z,100023.47
2023-09-17T03:54:01.105Z,100021.16
2023-09-17T03:56:28.256Z,100031.16
2023-09-17T03:58:55.795Z,100030.31
2023-09-17T04:01:22.500Z,100034.22
2023-09-17T04:03:50.074Z,100038.34
2023-09-17T04:06:17.041Z,100035.19
2023-09-17T04:08:44.027Z,100040.22
2023-09-17T04:11:16.698Z,100038.53
2023-09-17T04:13:43.319Z,100037.88
2023-09-17T04:16:11.173Z,100037.69
2023-09-17T04:18:37.874Z,100048.00
2023-09-17T04:21:05.015Z,100052.41
2023-09-17T04:23:31.710Z,100051.38
2023-09-17T04:25:58.256Z,100057.16
2023-09-17T04:28:25.230Z,100050.09
2023-09-17T04:30:51.772Z,100052.16
2023-09-17T04:33:20.715Z,100055.88
2023-09-17T04:35:47.391Z,100054.28
2023-09-17T04:38:13.884Z,100061.59
2023-09-17T04:40:40.767Z,100068.03
2023-09-17T04:43:07.333Z,100070.09
2023-09-17T04:45:35.293Z,100068.88
2023-09-17T04:48:02.358Z,100072.63
2023-09-17T04:50:29.763Z,100076.34
2023-09-17T04:52:56.792Z,100071.94
2023-09-17T04:55:23.692Z,100077.00
2023-09-17T04:57:51.187Z,100079.97
2023-09-17T05:00:17.931Z,100070.16
2023-09-17T05:02:44.463Z,100081.91
2023-09-17T05:05:11.762Z,100083.78
2023-09-17T05:07:41.160Z,100077.16
2023-09-17T05:10:08.827Z,100073.03
2023-09-17T05:12:35.378Z,100081.59
2023-09-17T05:15:01.846Z,100087.22
2023-09-17T05:17:28.372Z,100090.19
2023-09-17T05:19:55.040Z,100090.84
2023-09-17T05:22:21.630Z,100084.00
2023-09-17T05:24:48.213Z,100073.94
2023-09-17T05:27:14.701Z,100091.59
2023-09-17T05:29:42.065Z,100091.50
2023-09-17T05:32:08.674Z,100093.44
2023-09-17T05:34:35.435Z,100094.72
2023-09-17T05:37:01.993Z,100101.06
2023-09-17T05:39:28.495Z,100103.66
2023-09-17T05:41:56.293Z,100105.41
2023-09-17T05:44:23.909Z,100107.56
2023-09-17T05:46:50.346Z,100100.16
2023-09-17T05:49:16.832Z,100105.63
2023-09-17T05:51:43.333Z,100111.75
2023-09-17T05:54:10.107Z,100099.91
2023-09-17T05:56:36.625Z,100103.31
2023-09-17T05:59:03.152Z,100097.56
2023-09-17T06:01:31.969Z,100105.13
2023-09-17T06:03:58.599Z,100112.88
2023-09-17T06:06:25.211Z,100077.34
2023-09-17T06:08:53.092Z,100091.72
2023-09-17T06:11:20.407Z,100104.34
2023-09-17T06:13:47.083Z,100101.22
2023-09-17T06:16:13.697Z,100099.59
2023-09-17T06:18:40.196Z,100112.19
2023-09-17T06:21:06.654Z,100105.72
2023-09-17T06:23:33.205Z,100116.88
2023-09-17T06:26:00.593Z,100110.00
2023-09-17T06:28:27.434Z,100115.28
2023-09-17T06:30:54.962Z,100119.03
2023-09-17T06:33:21.469Z,100117.38
2023-09-17T06:35:48.010Z,100120.31
2023-09-17T06:38:14.516Z,100121.38
2023-09-17T06:40:41.042Z,100111.50
2023-09-17T06:43:07.517Z,100110.69
2023-09-17T06:45:34.187Z,100106.06
2023-09-17T06:48:00.864Z,100112.72
2023-09-17T06:50:27.428Z,100123.59
2023-09-17T06:52:53.973Z,100118.13
2023-09-17T06:55:20.493Z,100123.13
2023-09-17T06:57:47.056Z,100119.09
2023-09-17T07:00:15.416Z,100117.41
2023-09-17T07:02:42.170Z,100118.00
2023-09-17T07:05:09.942Z,100123.59
2023-09-17T07:07:36.548Z,100125.91
2023-09-17T07:10:05.308Z,100132.53
2023-09-17T07:12:37.062Z,100122.81
2023-09-17T07:15:04.806Z,100124.06
2023-09-17T07:17:31.492Z,100125.47
2023-09-17T07:19:58.288Z,100126.25
2023-09-17T07:22:24.847Z,100123.88
2023-09-17T07:24:57.234Z,100125.06
2023-09-17T07:27:23.760Z,100125.63
2023-09-17T07:29:50.283Z,100132.50
2023-09-17T07:32:16.861Z,100122.34
2023-09-17T07:34:43.409Z,100128.00
2023-09-17T07:37:09.926Z,100129.00
2023-09-17T07:39:36.483Z,100133.50
2023-09-17T07:42:03.627Z,100127.91
2023-09-17T07:44:30.144Z,100133.44
2023-09-17T07:46:56.636Z,100126.00
2023-09-17T07:49:28.297Z,100133.44
2023-09-17T07:51:54.943Z,100123.53
2023-09-17T07:54:21.460Z,100129.81
2023-09-17T07:56:48.021Z,100134.53
2023-09-17T07:59:14.523Z,100131.44
2023-09-17T08:01:41.161Z,100132.25
2023-09-17T08:04:10.809Z,100135.88
2023-09-17T08:06:37.384Z,100139.88
2023-09-17T08:09:06.625Z,100146.19
2023-09-17T08:11:33.219Z,100142.81
2023-09-17T08:14:00.302Z,100147.94
2023-09-17T08:16:27.341Z,100141.78
2023-09-17T08:18:53.949Z,100146.91
2023-09-17T08:21:21.575Z,100136.06
2023-09-17T08:23:48.116Z,100147.09
2023-09-17T08:26:14.642Z,100137.91
2023-09-17T08:28:43.465Z,100135.50
2023-09-17T08:31:10.030Z,100133.06
2023-09-17T08:33:37.073Z,100136.16
2023-09-17T08:36:04.107Z,100138.72
2023-09-17T08:38:31.166Z,100136.63
2023-09-17T08:41:02.415Z,100125.31
2023-09-17T08:43:29.445Z,100130.78
2023-09-17T08:45:56.294Z,100129.53
2023-09-17T08:48:24.001Z,100106.28
2023-09-17T08:50:52.151Z,100124.59
2023-09-17T08:53:29.637Z,100114.94
2023-09-17T08:55:58.241Z,100113.25
2023-09-17T08:58:37.555Z,100117.66
2023-09-17T09:01:05.785Z,100123.66
2023-09-17T09:03:36.330Z,100121.38
2023-09-17T09:06:04.810Z,100124.59
2023-09-17T09:08:35.882Z,100122.88
2023-09-17T09:11:02.548Z,100129.91
2023-09-17T09:13:30.062Z,100126.97
2023-09-17T09:15:57.950Z,100124.25
2023-09-17T09:18:25.706Z,100120.53
2023-09-17T09:20:52.300Z,100105.16
2023-09-17T09:23:18.775Z,100107.66
2023-09-17T09:25:45.624Z,100108.88
2023-09-17T09:28:12.382Z,100107.47
2023-09-17T09:30:38.892Z,100110.81
2023-09-17T09:33:05.853Z,100100.06
2023-09-17T09:35:32.613Z,100103.63
2023-09-17T09:38:01.265Z,100115.00
2023-09-17T09:40:28.394Z,100114.44
2023-09-17T09:42:55.093Z,100101.44
2023-09-17T09:45:21.626Z,100111.38
2023-09-17T09:47:52.684Z,100110.75
2023-09-17T09:50:27.537Z,100094.13
2023-09-17T09:52:54.932Z,100109.84
2023-09-17T09:55:26.005Z,100102.94
2023-09-17T09:57:53.801Z,100107.69
2023-09-17T10:00:30.666Z,100104.06
2023-09-17T10:02:57.700Z,100102.53
2023-09-17T10:05:41.211Z,100099.44
2023-09-17T10:08:12.532Z,100093.91
2023-09-17T10:10:40.127Z,100093.31
2023-09-17T10:13:08.357Z,100088.50
2023-09-17T10:15:40.182Z,100078.16
2023-09-17T10:18:11.843Z,100080.81
2023-09-17T10:20:39.555Z,100079.91
2023-09-17T10:23:07.657Z,100093.09
2023-09-17T10:25:35.150Z,100078.78
2023-09-17T10:28:03.531Z,100076.28
2023-09-17T10:30:31.762Z,100079.78
2023-09-17T10:32:59.988Z,100080.28
2023-09-17T10:35:27.007Z,100069.63
2023-09-17T10:37:57.945Z,100072.75
2023-09-17T10:40:26.235Z,100081.78
2023-09-17T10:42:54.199Z,100076.88
2023-09-17T10:45:22.506Z,100074.47
2023-09-17T10:47:52.003Z,100066.78
2023-09-17T10:50:19.868Z,100065.22
2023-09-17T10:52:46.424Z,100071.56
2023-09-17T10:55:13.087Z,100064.44
2023-09-17T10:57:48.302Z,100050.66
2023-09-17T11:00:19.680Z,100049.06
2023-09-17T11:02:53.124Z,100048.88
2023-09-17T11:05:23.997Z,100045.63
2023-09-17T11:07:53.590Z,100042.88
2023-09-17T11:10:31.294Z,100034.78
2023-09-17T11:12:59.100Z,100031.47
2023-09-17T11:15:25.855Z,100044.78
2023-09-17T11:17:59.591Z,100043.22
2023-09-17T11:20:26.365Z,100042.53
2023-09-17T11:22:53.073Z,100046.03
2023-09-17T11:25:36.574Z,100054.66
2023-09-17T11:28:13.683Z,100055.56
2023-09-17T11:30:57.571Z,100049.44
2023-09-17T11:33:25.863Z,100038.72
2023-09-17T11:35:54.251Z,100035.25
2023-09-17T11:38:27.102Z,100041.56
2023-09-17T11:41:11.257Z,100043.88
2023-09-17T11:43:49.166Z,100023.47
2023-09-17T11:46:17.134Z,100032.16
2023-09-17T11:48:45.047Z,100030.47
2023-09-17T11:51:23.730Z,100028.81
2023-09-17T11:53:51.090Z,100032.13
2023-09-17T11:56:17.884Z,100030.00
2023-09-17T11:58:44.465Z,100025.78
2023-09-17T12:01:11.000Z,100025.28
2023-09-17T12:03:38.003Z,100028.06
2023-09-17T12:06:06.152Z,100029.00
2023-09-17T12:08:33.209Z,100018.91
2023-09-17T12:11:08.201Z,100020.25
2023-09-17T12:13:34.813Z,100020.25
2023-09-17T12:16:02.196Z,100008.63
2023-09-17T12:18:29.597Z,100013.09
2023-09-17T12:21:00.778Z,100003.88
2023-09-17T12:23:48.366Z,100012.50
2023-09-17T12:27:00.058Z,100007.66
2023-09-17T12:29:26.565Z,100009.94
2023-09-17T12:31:53.205Z,100011.22
2023-09-17T12:34:20.836Z,100001.38
2023-09-17T12:36:47.318Z,100006.28
2023-09-17T12:39:14.016Z,99999.50
2023-09-17T12:41:41.393Z,100005.72
2023-09-17T12:44:08.213Z,100001.91
2023-09-17T12:46:34.995Z,99993.75
2023-09-17T12:49:02.030Z,99994.44
2023-09-17T12:51:28.750Z,100000.13
2023-09-17T12:53:55.347Z,99999.91
2023-09-17T12:56:22.421Z,100002.91
2023-09-17T12:58:52.439Z,100002.16
2023-09-17T13:01:18.976Z,99988.50
2023-09-17T13:03:53.855Z,99989.03
2023-09-17T13:06:21.507Z,99987.94
2023-09-17T13:08:48.729Z,99988.78
2023-09-17T13:11:15.802Z,99976.53
2023-09-17T13:13:46.415Z,99975.09
2023-09-17T13:16:13.493Z,99970.84
2023-09-17T13:18:40.497Z,99978.47
2023-09-17T13:21:07.346Z,99981.34
2023-09-17T13:23:38.157Z,99965.81
2023-09-17T13:26:06.250Z,99968.50
2023-09-17T13:28:33.286Z,99966.31
2023-09-17T13:31:04.862Z,99981.28
2023-09-17T13:33:32.760Z,99975.81
2023-09-17T13:36:01.136Z,99982.47
2023-09-17T13:38:27.954Z,99964.91
2023-09-17T13:40:54.862Z,99968.84
2023-09-17T13:43:21.650Z,99968.63
2023-09-17T13:46:02.758Z,99964.59
2023-09-17T13:48:30.235Z,99961.06
2023-09-17T13:50:57.732Z,99967.53
2023-09-17T13:53:24.802Z,99955.91
2023-09-17T13:55:51.358Z,99961.00
2023-09-17T13:58:18.063Z,99962.22
2023-09-17T14:00:44.645Z,99958.28
2023-09-17T14:03:15.716Z,99952.75
2023-09-17T14:05:45.318Z,99952.72
2023-09-17T14:08:12.687Z,99959.06
2023-09-17T14:10:42.264Z,99953.69
2023-09-17T14:13:09.014Z,99947.84
2023-09-17T14:15:36.930Z,99946.00
2023-09-17T14:18:03.849Z,99943.22
2023-09-17T14:20:30.726Z,99940.94
2023-09-17T14:22:57.449Z,99937.41
2023-09-17T14:25:24.527Z,99937.41
2023-09-17T14:27:51.184Z,99943.53
2023-09-17T14:30:22.997Z,99940.66
2023-09-17T14:32:51.927Z,99935.13
2023-09-17T14:35:19.220Z,99930.97
2023-09-17T14:37:47.357Z,99929.38
2023-09-17T14:40:14.310Z,99931.00
2023-09-17T14:42:40.977Z,99939.34
2023-09-17T14:45:08.163Z,99930.88
2023-09-17T14:47:36.794Z,99938.34
2023-09-17T14:50:03.553Z,99937.25
2023-09-17T14:52:30.064Z,99929.47
2023-09-17T14:54:56.903Z,99924.19
2023-09-17T14:57:23.419Z,99921.13
2023-09-17T14:59:49.886Z,99911.72
2023-09-17T15:02:17.677Z,99919.97
2023-09-17T15:04:44.425Z,99929.91
2023-09-17T15:07:13.333Z,99932.38
2023-09-17T15:09:41.029Z,99924.41
2023-09-17T15:12:07.762Z,99926.59
2023-09-17T15:14:34.521Z,99918.09
2023-09-17T15:17:01.270Z,99926.13
2023-09-17T15:19:27.903Z,99922.03
2023-09-17T15:21:54.392Z,99922.03
2023-09-17T15:24:20.916Z,99907.66
2023-09-17T15:26:47.442Z,99917.03
2023-09-17T15:29:14.399Z,99907.38
2023-09-17T15:31:41.320Z,99912.63
2023-09-17T15:34:08.245Z,99909.66
2023-09-17T15:36:35.246Z,99911.88
2023-09-17T15:39:01.916Z,99901.94
2023-09-17T15:41:29.773Z,99905.28
2023-09-17T15:43:56.467Z,99909.91
2023-09-17T15:46:24.566Z,99904.72
2023-09-17T15:48:51.562Z,99896.72
2023-09-17T15:51:19.396Z,99898.94
2023-09-17T15:53:45.977Z,99900.03
2023-09-17T15:56:12.631Z,99909.13
2023-09-17T15:58:39.327Z,99889.53
2023-09-17T16:01:05.932Z,99906.38
2023-09-17T16:03:32.630Z,99902.50
2023-09-17T16:06:01.127Z,99907.22
2023-09-17T16:08:27.671Z,99902.53
2023-09-17T16:10:54.533Z,99913.03
2023-09-17T16:13:21.118Z,99908.34
2023-09-17T16:15:51.754Z,99913.34
2023-09-17T16:18:18.807Z,99915.81
2023-09-17T16:20:45.368Z,99921.38
2023-09-17T16:23:11.998Z,99917.75
2023-09-17T16:25:39.364Z,99925.22
2023-09-17T16:28:06.420Z,99924.66
2023-09-17T16:30:32.957Z,99921.63
2023-09-17T16:32:59.691Z,99924.66
2023-09-17T16:35:27.381Z,99924.06
2023-09-17T16:37:53.845Z,99919.34
2023-09-17T16:40:20.523Z,99906.38
2023-09-17T16:42:58.023Z,99917.94
2023-09-17T16:45:32.624Z,99916.22
2023-09-17T16:47:59.499Z,99923.84
2023-09-17T16:50:29.362Z,99917.16
2023-09-17T16:52:56.494Z,99926.47
2023-09-17T16:55:23.153Z,99926.38
2023-09-17T16:57:49.719Z,99921.31
2023-09-17T17:00:16.591Z,99922.84
2023-09-17T17:02:43.198Z,99937.59
2023-09-17T17:05:09.844Z,99936.34
2023-09-17T17:07:36.399Z,99912.09
2023-09-17T17:10:02.951Z,99944.59
2023-09-17T17:12:29.486Z,99935.34
2023-09-17T17:14:56.041Z,99938.88
2023-09-17T17:17:23.342Z,99940.13
2023-09-17T17:19:50.069Z,99937.78
2023-09-17T17:22:17.636Z,99938.06
2023-09-17T17:24:44.138Z,99933.97
2023-09-17T17:27:10.653Z,99945.47
2023-09-17T17:29:37.447Z,99945.59
2023-09-17T17:32:04.244Z,99948.44
2023-09-17T17:34:30.836Z,99905.69
2023-09-17T17:37:01.073Z,99940.78
2023-09-17T17:39:27.637Z,99940.03
2023-09-17T17:41:54.179Z,99949.03
2023-09-17T17:44:20.731Z,99949.13
2023-09-17T17:46:47.459Z,99954.19
2023-09-17T17:49:13.997Z,99948.78
2023-09-17T17:51:40.536Z,99948.88
2023-09-17T17:54:07.160Z,99952.53
2023-09-17T17:56:33.697Z,99948.88
2023-09-17T17:59:00.327Z,99959.75
2023-09-17T18:01:27.473Z,99960.25
2023-09-17T18:03:54.157Z,99969.19
2023-09-17T18:06:21.597Z,99974.34
2023-09-17T18:08:48.124Z,99981.06
2023-09-17T18:11:15.786Z,99972.13
2023-09-17T18:13:42.941Z,99973.81
2023-09-17T18:16:09.653Z,99983.59
2023-09-17T18:18:36.224Z,99987.19
2023-09-17T18:21:02.725Z,99985.56
2023-09-17T18:23:29.228Z,100000.22
2023-09-17T18:25:56.146Z,99991.88
2023-09-17T18:28:23.431Z,99995.69
2023-09-17T18:30:50.042Z,99998.19
2023-09-17T18:33:16.597Z,99996.97
2023-09-17T18:35:43.659Z,100002.00
2023-09-17T18:38:10.173Z,100010.34
2023-09-17T18:40:38.525Z,100013.44
2023-09-17T18:43:05.746Z,100008.09
2023-09-17T18:45:33.006Z,100012.72
2023-09-17T18:47:59.566Z,100006.19
2023-09-17T18:50:26.285Z,100012.50
2023-09-17T18:52:53.149Z,100030.94
2023-09-17T18:55:19.810Z,100026.88
2023-09-17T18:57:46.309Z,100028.31
2023-09-17T19:00:14.371Z,100028.13
2023-09-17T19:02:43.204Z,100023.38
2023-09-17T19:05:10.755Z,100035.38
2023-09-17T19:07:37.972Z,100029.91
2023-09-17T19:10:05.551Z,100038.81
2023-09-17T19:12:32.155Z,100030.94
2023-09-17T19:15:00.214Z,100026.41
2023-09-17T19:17:28.806Z,100028.09
2023-09-17T19:19:55.718Z,100026.63
2023-09-17T19:22:22.301Z,100030.22
2023-09-17T19:24:48.885Z,100037.84
2023-09-17T19:27:16.107Z,100031.53
2023-09-17T19:29:45.511Z,100026.28
2023-09-17T19:32:14.716Z,100034.00
2023-09-17T19:34:41.553Z,100022.72
2023-09-17T19:37:09.181Z,99985.22
2023-09-17T19:39:35.905Z,100021.28
2023-09-17T19:42:02.488Z,100020.56
2023-09-17T19:44:29.142Z,100013.88
2023-09-17T19:46:57.887Z,100024.34
2023-09-17T19:49:26.080Z,100020.41
2023-09-17T19:51:52.612Z,100032.88
2023-09-17T19:54:19.080Z,100025.38
2023-09-17T19:56:47.699Z,100022.16
2023-09-17T19:59:14.248Z,100025.38
2023-09-17T20:01:40.868Z,100023.09
2023-09-17T20:04:08.262Z,100021.06
2023-09-17T20:06:47.676Z,100025.31
2023-09-17T20:09:21.956Z,100025.78
2023-09-17T20:11:48.721Z,100018.28
2023-09-17T20:14:15.242Z,100015.75
2023-09-17T20:16:41.818Z,100010.50
2023-09-17T20:19:08.436Z,100017.66
2023-09-17T20:21:35.016Z,100013.34
2023-09-17T20:24:01.524Z,100020.25
2023-09-17T20:26:28.111Z,100016.69
2023-09-17T20:28:54.960Z,100018.34
2023-09-17T20:31:21.947Z,100017.13
2023-09-17T20:33:48.881Z,100018.66
2023-09-17T20:36:15.473Z,100017.00
2023-09-17T20:38:45.937Z,100015.09
2023-09-17T20:41:13.100Z,100019.34
2023-09-17T20:43:39.677Z,100017.44
2023-09-17T20:46:06.238Z,100018.75
2023-09-17T20:48:32.971Z,100029.06
2023-09-17T20:51:01.512Z,100018.22
2023-09-17T20:53:30.217Z,100015.19
2023-09-17T20:55:56.966Z,100020.66
2023-09-17T20:58:23.492Z,100017.31
2023-09-17T21:00:50.054Z,100017.53
2023-09-17T21:03:16.758Z,100025.34
2023-09-17T21:05:50.007Z,100018.06
2023-09-17T21:08:16.778Z,100028.38
2023-09-17T21:10:43.770Z,100025.66
2023-09-17T21:13:11.965Z,100013.69
2023-09-17T21:15:39.354Z,100013.53
2023-09-17T21:18:07.109Z,100016.41
2023-09-17T21:20:34.048Z,100014.94
2023-09-17T21:23:01.394Z,100015.63
2023-09-17T21:25:28.448Z,100015.28
2023-09-17T21:27:55.313Z,100012.00
2023-09-17T21:30:21.953Z,100006.75
2023-09-17T21:32:48.699Z,100008.22
2023-09-17T21:35:15.629Z,100005.34
2023-09-17T21:37:42.242Z,100005.91
2023-09-17T21:40:09.508Z,100008.66
2023-09-17T21:42:37.131Z,100015.16
2023-09-17T21:45:04.295Z,100009.94
2023-09-17T21:47:31.016Z,100002.34
2023-09-17T21:50:00.620Z,100004.25
2023-09-17T21:52:29.560Z,100005.91
2023-09-17T21:54:59.129Z,100008.81
2023-09-17T21:57:25.837Z,100006.53
2023-09-17T21:59:52.959Z,100006.53
2023-09-17T22:02:20.416Z,100002.13
2023-09-17T22:04:47.230Z,100007.22
2023-09-17T22:07:13.818Z,100004.72
2023-09-17T22:09:41.000Z,100006.19
2023-09-17T22:12:08.502Z,100001.19
2023-09-17T22:14:35.783Z,100000.81
2023-09-17T22:17:06.060Z,100004.81
2023-09-17T22:19:34.129Z,100003.16
2023-09-17T22:22:00.755Z,99992.31
2023-09-17T22:24:27.248Z,99993.13
2023-09-17T22:26:53.746Z,99987.97
2023-09-17T22:29:20.291Z,99991.44
2023-09-17T22:31:46.802Z,99986.41
2023-09-17T22:34:13.442Z,99991.69
2023-09-17T22:36:40.570Z,99994.88
2023-09-17T22:39:07.366Z,99988.44
2023-09-17T22:41:34.081Z,99997.03
2023-09-17T22:44:11.851Z,99997.72
2023-09-17T22:46:43.190Z,99991.91
2023-09-17T22:49:09.902Z,99991.13
2023-09-17T22:51:37.151Z,99992.81
2023-09-17T22:54:03.894Z,99993.00
2023-09-17T22:56:30.562Z,99988.91
2023-09-17T22:58:57.161Z,99998.97
2023-09-17T23:01:23.714Z,99995.63
2023-09-17T23:03:50.225Z,100004.00
2023-09-17T23:06:17.485Z,100000.69
2023-09-17T23:08:44.009Z,100007.41
2023-09-17T23:11:10.752Z,100009.53
2023-09-17T23:13:37.461Z,100017.06
2023-09-17T23:16:04.681Z,99996.59
2023-09-17T23:18:31.436Z,100012.28
2023-09-17T23:20:58.420Z,100015.84
2023-09-17T23:23:25.339Z,100012.31
2023-09-17T23:25:56.138Z,100011.50
2023-09-17T23:28:24.427Z,100010.66
2023-09-17T23:30:52.316Z,100004.97
2023-09-17T23:33:21.933Z,100006.66
2023-09-17T23:35:51.089Z,100011.06
2023-09-17T23:38:18.360Z,100014.00
2023-09-17T23:40:45.191Z,99999.56
2023-09-17T23:43:12.260Z,100009.63
2023-09-17T23:45:40.346Z,100009.22
2023-09-17T23:48:07.147Z,100006.69
2023-09-17T23:50:33.846Z,100010.94
2023-09-17T23:53:00.507Z,100005.31
2023-09-17T23:55:27.291Z,100013.00
2023-09-17T23:57:53.850Z,100013.47
